Moores Crossing, Texas
Current Conditions -  °F | °C
As of 7:53 PM on Wednesday 17 Dec 2014 (Local Time) from KAUS Reporting Station
Overcast Overcast  
Wind Chill: 52°   Ceiling: 900
Heat Index: 52°   Visibility: 10mi
Dew Point: 51°   Wind: 7mph
Humidity: 97%   Direction: 350°N
Pressure: 30.08"   Gusts: NA
Location:  30.1003°N, 97.6725°W
Report Text: KAUS 180153Z 35006KT 10SM OVC009 11/11 A3008 RMK AO2 SLP187 T01110106
Loading
Personal Weather Stations






























Interactive Weather Map New forecast layout! Learn more

10-Day Weather Forecast

Advertisements
Track Severe Weather on mobile